Terminal Aerodrome Forecast
Issued by NWS

Home | Current Version | Previous Version | Text Only | Print | Product List | Glossary On
Versions: 1 2 3 4 5 6 7 8 9 10 11 12
000
FTUS42 TJSJ 220500
TAFJPS
TAF
TJPS 220522Z 2206/2306 VRB04KT P6SM FEW030
     FM221300 13012KT P6SM FEW025 SCT060
     FM222300 VRB04KT P6SM FEW030=

USA.gov is the U.S. government's official web portal to all federal, state and local government web resources and services.